メインページ
METAR-TAF:

METAR-TAF

空港 :

チュニス・カルタゴ国際空港

チュニス, チュニジア

緯度: 36-50N, 経度: 010-14E, 海抜: 3m

現時点の気象観測

当レポートは17分前の09:30(UTC)に作成
西の風 10kt、南西から西/北西の間で変化する
気温 18°C
湿度 56%
気圧 1010 hPa
視程10km以上
高度2300ftの雲はほとんどない

METAR: DTTA 140930Z 26010KT 230V290 9999 FEW023 18/09 Q1010

時間: 10:47 (09:47 UTC)

予報

当レポートは4時間47分前の05:00(UTC)に作成
予報は14日の 06時(UTC)から 15日の 06時(UTC)まで有効
西/南西の風 10kt
視程10km以上
高度2300ftの雲はほとんどない
14日の 10時(UTC)から 14日の 12時(UTC)まで徐々に
西/南西の風 5kt
14日の 15時(UTC)から 14日の 17時(UTC)まで徐々に
の風 8kt

TAF: DTTA 140500Z 1406/1506 24010KT 9999 FEW023 BECMG 1410/1412 25005KT BECMG 1415/1417 17008KT

4,000以上の空港の気象観測と天気予報(METAR報とTAF報)

利用可能な観測所は地図上に黄色い丸と赤い丸で示す。

丸の上にカーソルを重ねると観測所名を参照できる。

次にクリックすると気象観測と天気予報を参照できる。

マップの切り替え:黒色「×」印の緑ボタンをクリックして拡大、「-」印の緑ボタンをクリックして縮小、緑色の三角印をクリックして隣りの地図に切り替え


METAR-TAF: